Terminal Aerodrome Forecast
Issued by NWS

Home | Current Version | Previous Version | Graphics & Text | Print | Product List | Glossary On
Versions: 1 2 3 4 5 6 7 8 9 10 11 12 13 14 15 16 17
000
FTUS45 KGGW 270500 RRA
TAFSDY
TAF
KSDY 270548Z 2706/2806 14006KT P6SM VCSH SCT020 OVC090
     FM271200 14012KT 5SM -FZRASN OVC014
     FM271800 17008KT P6SM VCSH OVC010
     FM272100 23008KT P6SM VCSH OVC022
     FM280000 25008KT P6SM BKN019
      AMD LTD TO CLD VIS AND WIND=

USA.gov is the U.S. government's official web portal to all federal, state and local government web resources and services.